Time;durP1;ratioP1;P1;durP2;ratioP2;P2;SDS_P1;SDS_P2;PMS_P1;PMS_P2;Temp;Humidity;BMP_temperature;BMP_pressure;BME280_temperature;BME280_humidity;BME280_pressure;Samples;Min_cycle;Max_cycle;Signal;HPM_P1;HPM_P2
2021/11/14 00:01:32;;;;;;;147.20;45.10;;;9.10;99.90;;;;;;6214896;23;20426;-76
2021/11/14 00:04:01;;;;;;;230.27;50.37;;;9.10;99.90;;;;;;6227189;23;20418;-76
2021/11/14 00:06:30;;;;;;;150.90;43.77;;;9.10;99.90;;;;;;6214964;23;20796;-76
2021/11/14 00:08:59;;;;;;;190.03;51.33;;;9.10;99.90;;;;;;6214889;23;20418;-76
2021/11/14 00:11:28;;;;;;;149.03;46.00;;;9.10;99.90;;;;;;6214806;23;20453;-76
2021/11/14 00:13:58;;;;;;;183.50;58.60;;;9.10;99.90;;;;;;6214733;23;20474;-76
2021/11/14 00:16:27;;;;;;;236.73;58.53;;;9.10;99.90;;;;;;6214891;23;20469;-76
2021/11/14 00:18:57;;;;;;;160.47;47.17;;;9.10;99.90;;;;;;6214985;23;20449;-76
2021/11/14 00:21:27;;;;;;;165.60;45.63;;;9.10;99.90;;;;;;6214749;23;20820;-76
2021/11/14 00:23:56;;;;;;;216.47;54.20;;;9.10;99.90;;;;;;6214193;23;20445;-76
2021/11/14 00:26:26;;;;;;;195.30;53.17;;;9.10;99.90;;;;;;6214977;23;20421;-76
2021/11/14 00:28:54;;;;;;;240.07;55.20;;;9.10;99.90;;;;;;6214355;23;20446;-76
2021/11/14 00:31:23;;;;;;;179.03;51.13;;;9.10;99.90;;;;;;6214562;23;20421;-76
2021/11/14 00:33:51;;;;;;;172.60;53.67;;;9.00;99.90;;;;;;6214534;23;20450;-76
2021/11/14 00:36:23;;;;;;;172.17;50.97;;;9.10;99.90;;;;;;6214868;23;20467;-76
2021/11/14 00:38:52;;;;;;;171.97;48.13;;;9.10;99.90;;;;;;6214642;23;20472;-76
2021/11/14 00:41:22;;;;;;;221.20;56.90;;;9.10;99.90;;;;;;6215593;23;20473;-76
2021/11/14 00:43:52;;;;;;;205.33;61.47;;;9.10;99.90;;;;;;6214947;23;20434;-76
2021/11/14 00:46:21;;;;;;;152.03;53.93;;;9.00;99.90;;;;;;6214716;23;20733;-76
2021/11/14 00:48:49;;;;;;;224.63;56.33;;;9.00;99.90;;;;;;6214612;23;20415;-76
2021/11/14 00:51:24;;;;;;;218.67;64.27;;;9.00;99.90;;;;;;6214672;23;20453;-76
2021/11/14 00:53:52;;;;;;;242.97;64.43;;;9.00;99.90;;;;;;6216624;23;20512;-76
2021/11/14 00:56:21;;;;;;;178.17;55.13;;;9.00;99.90;;;;;;6214443;23;20414;-76
2021/11/14 00:58:51;;;;;;;157.40;53.60;;;9.00;99.90;;;;;;6214581;23;20832;-76
2021/11/14 01:01:21;;;;;;;185.90;51.40;;;9.00;99.90;;;;;;6226276;23;20723;-76
2021/11/14 01:03:51;;;;;;;147.47;49.77;;;9.00;99.90;;;;;;6214481;23;20453;-76
2021/11/14 01:06:19;;;;;;;217.97;54.20;;;8.90;99.90;;;;;;6214386;23;20418;-76
2021/11/14 01:08:48;;;;;;;136.60;46.07;;;8.90;99.90;;;;;;6214748;23;20442;-76
2021/11/14 01:11:17;;;;;;;154.87;48.30;;;8.90;99.90;;;;;;6216207;23;20434;-76
2021/11/14 01:13:47;;;;;;;115.60;44.93;;;8.90;99.90;;;;;;6214388;23;20442;-76
2021/11/14 01:16:19;;;;;;;108.37;43.60;;;8.90;99.90;;;;;;6216298;23;20395;-76
2021/11/14 01:18:47;;;;;;;134.47;43.67;;;8.90;99.90;;;;;;6214538;23;20430;-76
2021/11/14 01:21:17;;;;;;;156.57;54.87;;;8.90;99.90;;;;;;6214249;23;20520;-76
2021/11/14 01:23:46;;;;;;;184.63;49.30;;;8.90;99.90;;;;;;6214527;23;20476;-76
2021/11/14 01:26:15;;;;;;;33.33;28.00;;;8.90;99.90;;;;;;6213781;23;20460;-75
2021/11/14 01:28:43;;;;;;;255.73;62.90;;;8.90;99.90;;;;;;6214219;23;20175;-76
2021/11/14 01:31:11;;;;;;;287.90;60.77;;;9.00;99.90;;;;;;6226092;23;20438;-75
2021/11/14 01:33:41;;;;;;;142.63;43.13;;;8.90;99.90;;;;;;6226214;23;20419;-75
2021/11/14 01:36:09;;;;;;;180.00;52.10;;;9.00;99.90;;;;;;6225825;23;20442;-75
2021/11/14 01:38:38;;;;;;;209.37;56.27;;;8.90;99.90;;;;;;6214081;23;20434;-75
2021/11/14 01:41:09;;;;;;;158.07;37.00;;;8.90;99.90;;;;;;6215366;23;20904;-75
2021/11/14 01:43:42;;;;;;;172.03;40.13;;;8.90;99.90;;;;;;6215000;23;20962;-75
2021/11/14 01:46:10;;;;;;;252.07;48.23;;;8.90;99.90;;;;;;6216161;23;20399;-75
2021/11/14 01:48:39;;;;;;;177.80;45.93;;;8.90;99.90;;;;;;6216561;23;20413;-75
2021/11/14 01:51:09;;;;;;;188.07;43.20;;;8.90;99.90;;;;;;6215777;23;20414;-76
2021/11/14 01:53:39;;;;;;;221.80;47.97;;;8.90;99.90;;;;;;6217959;23;20473;-76
2021/11/14 01:56:09;;;;;;;171.87;45.43;;;8.90;99.90;;;;;;6228169;23;20429;-75
2021/11/14 01:58:38;;;;;;;186.53;47.53;;;8.90;99.90;;;;;;6216105;23;20445;-76
2021/11/14 02:01:12;;;;;;;242.57;48.20;;;8.90;99.90;;;;;;6216281;23;20414;-76
2021/11/14 02:03:44;;;;;;;192.23;48.00;;;8.90;99.90;;;;;;6216168;23;20500;-78
2021/11/14 02:06:14;;;;;;;274.07;54.93;;;8.90;99.90;;;;;;6237763;23;21045;-76
2021/11/14 02:08:43;;;;;;;243.80;49.47;;;9.00;99.90;;;;;;6221670;23;20815;-76
2021/11/14 02:11:15;;;;;;;333.20;49.77;;;9.00;99.90;;;;;;6247965;23;20424;-75
2021/11/14 02:13:45;;;;;;;168.57;40.87;;;9.00;99.90;;;;;;6248194;22;20463;-76
2021/11/14 02:16:14;;;;;;;179.50;39.10;;;9.00;99.90;;;;;;6248140;23;20456;-75
2021/11/14 02:18:42;;;;;;;231.77;47.30;;;9.00;99.90;;;;;;6248122;23;20414;-76
2021/11/14 02:21:12;;;;;;;192.57;42.13;;;9.00;99.90;;;;;;6220861;23;20456;-76
2021/11/14 02:23:40;;;;;;;180.53;48.97;;;9.00;99.90;;;;;;6258213;22;20418;-75
2021/11/14 02:26:09;;;;;;;203.60;42.03;;;9.00;99.90;;;;;;6247958;23;20413;-76
2021/11/14 02:28:37;;;;;;;185.67;39.33;;;9.00;99.90;;;;;;6257753;23;20955;-75
2021/11/14 02:31:06;;;;;;;189.57;46.77;;;9.00;99.90;;;;;;6220910;23;20500;-76
2021/11/14 02:33:35;;;;;;;220.50;45.20;;;9.00;99.90;;;;;;6221295;23;20441;-76
2021/11/14 02:36:08;;;;;;;169.93;42.33;;;8.90;99.90;;;;;;6220817;23;20417;-75
2021/11/14 02:38:40;;;;;;;223.50;45.47;;;9.00;99.90;;;;;;6220936;23;20418;-75
2021/11/14 02:41:10;;;;;;;165.60;37.03;;;8.90;99.90;;;;;;6220835;23;20491;-76
2021/11/14 02:43:43;;;;;;;134.63;38.93;;;8.90;99.90;;;;;;6221808;23;20528;-76
2021/11/14 02:46:12;;;;;;;239.57;48.87;;;8.90;99.90;;;;;;6247557;23;20390;-76
2021/11/14 02:48:41;;;;;;;206.37;42.57;;;8.90;99.90;;;;;;6220758;23;20459;-76
2021/11/14 02:51:14;;;;;;;135.73;42.23;;;8.90;99.90;;;;;;6245693;23;20412;-76
2021/11/14 02:53:44;;;;;;;223.93;49.90;;;8.90;99.90;;;;;;6220724;23;20475;-76
2021/11/14 02:56:13;;;;;;;237.63;44.77;;;8.90;99.90;;;;;;6220949;23;20405;-76
2021/11/14 02:58:42;;;;;;;41.83;27.40;;;8.90;99.90;;;;;;6219822;23;20438;-76
2021/11/14 03:01:13;;;;;;;150.17;48.10;;;9.00;99.90;;;;;;6220302;23;20236;-77
2021/11/14 03:03:43;;;;;;;319.47;60.93;;;9.00;99.90;;;;;;6220445;23;20440;-76
2021/11/14 03:06:12;;;;;;;193.43;45.07;;;8.90;99.90;;;;;;6247053;23;20512;-76
2021/11/14 03:08:40;;;;;;;200.77;50.17;;;8.90;99.90;;;;;;6220583;23;20416;-75
2021/11/14 03:11:10;;;;;;;234.73;45.27;;;8.90;99.90;;;;;;6257764;23;20408;-77
2021/11/14 03:13:38;;;;;;;115.37;42.23;;;8.90;99.90;;;;;;6257153;22;20499;-77
2021/11/14 03:16:11;;;;;;;289.47;42.00;;;8.90;99.90;;;;;;6220487;23;20453;-76
2021/11/14 03:18:39;;;;;;;184.27;41.73;;;8.90;99.90;;;;;;6220535;23;20899;-76
2021/11/14 03:21:08;;;;;;;214.87;45.80;;;8.90;99.90;;;;;;6220254;23;20484;-76
2021/11/14 03:23:38;;;;;;;154.97;41.87;;;8.90;99.90;;;;;;6220160;23;20435;-76
2021/11/14 03:26:06;;;;;;;163.77;44.17;;;8.80;99.90;;;;;;6257048;23;20861;-76
2021/11/14 03:28:36;;;;;;;237.47;44.00;;;8.80;99.90;;;;;;6220338;23;20433;-76
2021/11/14 03:31:05;;;;;;;177.63;42.40;;;8.80;99.90;;;;;;6220125;23;20445;-77
2021/11/14 03:33:33;;;;;;;168.07;34.53;;;8.80;99.90;;;;;;6257134;22;20416;-76
2021/11/14 03:36:04;;;;;;;230.17;39.93;;;8.80;99.90;;;;;;6257277;23;20491;-76
2021/11/14 03:38:35;;;;;;;145.17;45.43;;;8.80;99.90;;;;;;6220228;23;20864;-77
2021/11/14 03:41:07;;;;;;;136.63;36.23;;;8.80;99.90;;;;;;6220004;23;20430;-77
2021/11/14 03:43:38;;;;;;;183.30;40.37;;;8.80;99.90;;;;;;6257241;22;20508;-77
2021/11/14 03:46:07;;;;;;;193.33;40.77;;;8.70;99.90;;;;;;6220124;23;20421;-77
2021/11/14 03:48:37;;;;;;;215.10;46.27;;;8.70;99.90;;;;;;6257223;23;20390;-76
2021/11/14 03:51:06;;;;;;;180.10;41.13;;;8.70;99.90;;;;;;6247108;23;20400;-76
2021/11/14 03:53:34;;;;;;;163.17;37.57;;;8.70;99.90;;;;;;6256402;22;20422;-77
2021/11/14 03:56:02;;;;;;;201.13;50.63;;;8.70;99.90;;;;;;6219993;23;20444;-77
2021/11/14 03:58:31;;;;;;;212.67;49.53;;;8.80;99.90;;;;;;6219824;23;20441;-77
2021/11/14 04:01:06;;;;;;;137.17;32.93;;;8.70;99.90;;;;;;6218722;23;20432;-76
2021/11/14 04:03:35;;;;;;;114.47;32.17;;;8.70;99.90;;;;;;6219330;23;20440;-76
2021/11/14 04:06:03;;;;;;;216.03;37.77;;;8.70;99.90;;;;;;6256511;23;20448;-76
2021/11/14 04:08:31;;;;;;;125.33;38.40;;;8.70;99.90;;;;;;6247039;23;20393;-76
2021/11/14 04:11:00;;;;;;;167.70;34.00;;;8.70;99.90;;;;;;6256707;23;20401;-76
2021/11/14 04:13:30;;;;;;;94.07;38.53;;;8.70;99.90;;;;;;6244868;23;20430;-76
2021/11/14 04:16:02;;;;;;;214.90;42.10;;;8.70;99.90;;;;;;6221140;23;20418;-76
2021/11/14 04:18:30;;;;;;;129.50;39.13;;;8.70;99.90;;;;;;6244942;23;20405;-76
2021/11/14 04:20:58;;;;;;;200.67;49.60;;;8.70;99.90;;;;;;6219810;23;20433;-76
2021/11/14 04:23:27;;;;;;;211.33;43.90;;;8.70;99.90;;;;;;6219561;23;20471;-76
2021/11/14 04:25:55;;;;;;;205.07;49.40;;;8.70;99.90;;;;;;6219511;23;20436;-77
2021/11/14 04:28:24;;;;;;;125.10;43.23;;;8.70;99.90;;;;;;6219870;23;20495;-76
2021/11/14 04:30:53;;;;;;;214.57;50.77;;;8.70;99.90;;;;;;6256834;23;20428;-76
2021/11/14 04:33:23;;;;;;;177.07;42.93;;;8.70;99.90;;;;;;6219454;23;20443;-76
2021/11/14 04:35:52;;;;;;;130.27;38.60;;;8.70;99.90;;;;;;6219285;23;20448;-77
2021/11/14 04:38:20;;;;;;;318.73;53.67;;;8.70;99.90;;;;;;6246337;23;20907;-77
2021/11/14 04:40:50;;;;;;;167.17;41.30;;;8.70;99.90;;;;;;6219393;23;20999;-77
2021/11/14 04:43:19;;;;;;;172.93;43.37;;;8.70;99.90;;;;;;6256405;22;20472;-77
2021/11/14 04:45:48;;;;;;;149.67;37.60;;;8.70;99.90;;;;;;6219441;23;20441;-77
2021/11/14 04:48:17;;;;;;;167.90;48.63;;;8.70;99.90;;;;;;6219169;23;20503;-76
2021/11/14 04:50:47;;;;;;;205.90;44.40;;;8.70;99.90;;;;;;6219504;23;20446;-77
2021/11/14 04:53:16;;;;;;;221.33;59.47;;;8.70;99.90;;;;;;6256108;22;20417;-77
2021/11/14 04:55:45;;;;;;;170.70;48.07;;;8.70;99.90;;;;;;6219493;23;20895;-77
2021/11/14 04:58:14;;;;;;;151.93;43.90;;;8.70;99.90;;;;;;6219365;23;20417;-77
2021/11/14 05:00:52;;;;;;;140.80;38.67;;;8.70;99.90;;;;;;6218771;23;20524;-77
2021/11/14 05:03:22;;;;;;;159.87;47.13;;;8.70;99.90;;;;;;6246323;22;20755;-77
2021/11/14 05:05:56;;;;;;;184.60;55.13;;;8.70;99.90;;;;;;6214395;23;20461;-77
2021/11/14 05:08:24;;;;;;;135.07;45.87;;;8.70;99.90;;;;;;6214683;23;20406;-77
2021/11/14 05:10:53;;;;;;;218.07;60.73;;;8.70;99.90;;;;;;6214067;23;20415;-77
2021/11/14 05:13:21;;;;;;;197.33;49.57;;;8.70;99.90;;;;;;6224811;23;20913;-77
2021/11/14 05:15:50;;;;;;;227.97;57.10;;;8.70;99.90;;;;;;6215893;23;20453;-77
2021/11/14 05:18:18;;;;;;;258.37;61.73;;;8.70;99.90;;;;;;6228288;23;20413;-77
2021/11/14 05:20:47;;;;;;;203.27;54.57;;;8.70;99.90;;;;;;6227812;23;20429;-78
2021/11/14 05:23:16;;;;;;;169.90;50.13;;;8.80;99.90;;;;;;6216347;23;20967;-77
2021/11/14 05:25:45;;;;;;;205.00;67.17;;;8.70;99.90;;;;;;6216329;23;20422;-77
2021/11/14 05:28:14;;;;;;;276.80;66.83;;;8.80;99.90;;;;;;6216293;23;20418;-77
2021/11/14 05:30:42;;;;;;;259.13;58.20;;;8.70;99.90;;;;;;6216166;23;20410;-77
2021/11/14 05:33:11;;;;;;;174.37;58.17;;;8.70;99.90;;;;;;6227652;23;20421;-76
2021/11/14 05:35:40;;;;;;;197.63;54.90;;;8.80;99.90;;;;;;6217658;23;20905;-76
2021/11/14 05:38:08;;;;;;;195.60;54.33;;;8.80;99.90;;;;;;6217926;23;20409;-77
2021/11/14 05:40:37;;;;;;;267.90;60.27;;;8.70;99.90;;;;;;6216234;23;20422;-77
2021/11/14 05:43:06;;;;;;;195.43;62.53;;;8.80;99.90;;;;;;6216065;23;20437;-77
2021/11/14 05:45:35;;;;;;;232.60;59.13;;;8.80;99.90;;;;;;6216070;23;20451;-77
2021/11/14 05:48:04;;;;;;;215.47;56.47;;;8.70;99.90;;;;;;6215907;23;20413;-77
2021/11/14 05:50:32;;;;;;;201.47;62.43;;;8.70;99.90;;;;;;6215881;23;20422;-77
2021/11/14 05:53:00;;;;;;;206.27;50.17;;;8.80;99.90;;;;;;6216152;23;20426;-77
2021/11/14 05:55:28;;;;;;;238.40;53.90;;;8.80;99.90;;;;;;6217416;23;20438;-77
2021/11/14 05:58:01;;;;;;;172.60;53.53;;;8.80;99.90;;;;;;6216363;23;20413;-77
2021/11/14 06:00:35;;;;;;;189.83;50.53;;;8.80;99.90;;;;;;6227732;23;20383;-77
2021/11/14 06:03:07;;;;;;;178.57;53.43;;;8.80;99.90;;;;;;6218824;23;20434;-76
2021/11/14 06:05:38;;;;;;;147.53;49.63;;;8.80;99.90;;;;;;6217140;23;20455;-76
2021/11/14 06:08:07;;;;;;;232.40;59.90;;;8.80;99.90;;;;;;6217113;23;20417;-76
2021/11/14 06:10:36;;;;;;;263.97;61.47;;;8.80;99.90;;;;;;6217199;23;20425;-77
2021/11/14 06:13:05;;;;;;;332.57;68.87;;;8.80;99.90;;;;;;6228263;23;20516;-76
2021/11/14 06:15:33;;;;;;;231.33;68.87;;;8.80;99.90;;;;;;6216558;23;20505;-76
2021/11/14 06:18:02;;;;;;;181.47;62.17;;;8.80;99.90;;;;;;6216902;23;20414;-76
2021/11/14 06:20:30;;;;;;;246.40;60.67;;;8.80;99.90;;;;;;6218820;23;20413;-76
2021/11/14 06:22:58;;;;;;;255.07;60.87;;;8.80;99.90;;;;;;6216341;23;20450;-77
2021/11/14 06:25:26;;;;;;;260.50;63.63;;;8.80;99.90;;;;;;6215649;23;20480;-76
2021/11/14 06:27:54;;;;;;;186.73;61.63;;;8.80;99.90;;;;;;6216517;23;20511;-76
2021/11/14 06:30:24;;;;;;;194.70;57.83;;;8.80;99.90;;;;;;6216638;23;20414;-76
2021/11/14 06:32:52;;;;;;;254.80;62.60;;;8.80;99.90;;;;;;6217804;23;20532;-75
2021/11/14 06:35:21;;;;;;;250.73;59.13;;;8.80;99.90;;;;;;6216436;23;20415;-77
2021/11/14 06:37:49;;;;;;;220.00;53.63;;;8.80;99.90;;;;;;6216356;23;20420;-76
2021/11/14 06:40:18;;;;;;;247.47;61.30;;;8.80;99.90;;;;;;6216608;23;20411;-76
2021/11/14 06:42:46;;;;;;;249.70;57.33;;;8.80;99.90;;;;;;6228041;23;20435;-77
2021/11/14 06:45:14;;;;;;;187.80;63.27;;;8.80;99.90;;;;;;6217984;23;20430;-76
2021/11/14 06:47:44;;;;;;;211.73;56.93;;;8.80;99.90;;;;;;6216623;23;20833;-76
2021/11/14 06:50:13;;;;;;;202.40;60.77;;;8.80;99.90;;;;;;6216480;23;20418;-77
2021/11/14 06:52:43;;;;;;;178.13;50.73;;;8.80;99.90;;;;;;6216153;23;20438;-77
2021/11/14 06:55:13;;;;;;;195.63;57.43;;;8.80;99.90;;;;;;6216264;23;20510;-76
2021/11/14 06:57:42;;;;;;;186.00;54.00;;;8.80;99.90;;;;;;6216626;23;20506;-77
2021/11/14 07:00:13;;;;;;;191.70;64.33;;;8.80;99.90;;;;;;6227974;23;20489;-77
2021/11/14 07:02:42;;;;;;;199.00;64.00;;;8.80;99.90;;;;;;6228181;23;20473;-77
2021/11/14 07:05:12;;;;;;;255.40;61.33;;;8.80;99.90;;;;;;6216755;23;20461;-76
2021/11/14 07:07:41;;;;;;;256.13;68.23;;;8.80;99.90;;;;;;6216601;23;20439;-76
2021/11/14 07:10:11;;;;;;;228.43;62.57;;;8.80;99.90;;;;;;6216033;23;20750;-77
2021/11/14 07:12:40;;;;;;;235.13;60.97;;;8.80;99.90;;;;;;6216234;23;20478;-76
2021/11/14 07:15:10;;;;;;;299.13;69.03;;;8.80;99.90;;;;;;6216383;23;20414;-77
2021/11/14 07:17:39;;;;;;;232.60;59.57;;;8.80;99.90;;;;;;6216476;23;20418;-77
2021/11/14 07:20:08;;;;;;;192.00;62.73;;;8.80;99.90;;;;;;6217617;23;20955;-76
2021/11/14 07:22:38;;;;;;;233.07;59.50;;;8.80;99.90;;;;;;6217282;23;20484;-76
2021/11/14 07:25:14;;;;;;;235.27;62.83;;;8.80;99.90;;;;;;6216581;23;20413;-77
2021/11/14 07:27:43;;;;;;;203.40;69.83;;;8.80;99.90;;;;;;6217500;23;20430;-77
2021/11/14 07:30:12;;;;;;;221.97;57.73;;;8.80;99.90;;;;;;6227369;23;20394;-77
2021/11/14 07:32:43;;;;;;;202.43;58.73;;;8.80;99.90;;;;;;6217408;23;20481;-76
2021/11/14 07:35:13;;;;;;;240.50;61.43;;;8.80;99.90;;;;;;6215948;23;20415;-77
2021/11/14 07:37:43;;;;;;;190.30;61.50;;;8.80;99.90;;;;;;6215540;23;20413;-77
2021/11/14 07:40:14;;;;;;;342.80;80.43;;;8.90;99.90;;;;;;6215502;23;20449;-77
2021/11/14 07:42:44;;;;;;;209.97;64.60;;;8.80;99.90;;;;;;6215133;23;20473;-77
2021/11/14 07:45:15;;;;;;;250.03;62.13;;;8.90;99.90;;;;;;6215805;23;20448;-77
2021/11/14 07:47:46;;;;;;;268.20;68.13;;;8.90;99.90;;;;;;6227536;23;20469;-77
2021/11/14 07:50:16;;;;;;;219.47;64.80;;;8.90;99.90;;;;;;6214965;23;20502;-77
2021/11/14 07:52:46;;;;;;;301.17;66.67;;;8.90;99.90;;;;;;6215832;23;20438;-77
2021/11/14 07:55:15;;;;;;;271.83;62.17;;;8.90;99.90;;;;;;6216049;23;20406;-77
2021/11/14 07:57:44;;;;;;;294.40;63.77;;;8.90;99.90;;;;;;6216844;23;20424;-77
2021/11/14 08:00:15;;;;;;;218.20;59.17;;;8.90;99.90;;;;;;6213211;23;20890;-77
2021/11/14 08:02:43;;;;;;;220.30;66.83;;;9.00;99.90;;;;;;6227307;23;20470;-76
2021/11/14 08:05:12;;;;;;;241.33;64.97;;;8.90;99.90;;;;;;6215091;23;20418;-77
2021/11/14 08:07:40;;;;;;;293.20;81.43;;;8.90;99.90;;;;;;6214819;23;20745;-77
2021/11/14 08:10:11;;;;;;;219.30;58.87;;;9.00;99.90;;;;;;6214725;23;20442;-77
2021/11/14 08:12:39;;;;;;;182.37;64.50;;;9.00;99.90;;;;;;6226868;23;20453;-77
2021/11/14 08:15:08;;;;;;;182.53;53.33;;;9.00;99.90;;;;;;6216135;23;20425;-77
2021/11/14 08:17:36;;;;;;;231.70;59.47;;;9.00;99.90;;;;;;6214886;23;20505;-77
2021/11/14 08:20:06;;;;;;;241.43;60.20;;;9.00;99.90;;;;;;6214661;23;20897;-76
2021/11/14 08:22:35;;;;;;;299.80;71.67;;;9.00;99.90;;;;;;6214388;23;20449;-77
2021/11/14 08:25:04;;;;;;;242.20;59.00;;;9.00;99.90;;;;;;6214605;23;20418;-77
2021/11/14 08:27:35;;;;;;;163.53;55.63;;;9.00;99.90;;;;;;6226080;23;20433;-77
2021/11/14 08:30:05;;;;;;;202.00;58.07;;;9.00;99.90;;;;;;6214502;23;20500;-77
2021/11/14 08:32:34;;;;;;;169.87;51.97;;;9.00;99.90;;;;;;6214300;23;20442;-76
2021/11/14 08:35:03;;;;;;;208.20;60.23;;;9.10;99.90;;;;;;6214476;23;20441;-77
2021/11/14 08:37:31;;;;;;;147.77;47.03;;;9.10;99.90;;;;;;6214542;23;20445;-77
2021/11/14 08:40:00;;;;;;;211.20;55.43;;;9.10;99.90;;;;;;6214557;23;20471;-77
2021/11/14 08:42:28;;;;;;;289.47;66.50;;;9.10;99.90;;;;;;6214365;23;20873;-77
2021/11/14 08:44:57;;;;;;;261.90;70.27;;;9.10;99.90;;;;;;6214522;23;20422;-76
2021/11/14 08:47:26;;;;;;;238.83;56.43;;;9.10;99.90;;;;;;6214355;23;20414;-77
2021/11/14 08:49:55;;;;;;;296.77;64.50;;;9.10;99.90;;;;;;6225829;23;20401;-77
2021/11/14 08:52:23;;;;;;;252.10;61.77;;;9.10;99.90;;;;;;6214397;23;20454;-77
2021/11/14 08:54:52;;;;;;;297.23;65.90;;;9.10;99.90;;;;;;6225921;23;20407;-77
2021/11/14 08:57:20;;;;;;;337.50;72.17;;;9.10;99.90;;;;;;6214524;23;20517;-77
2021/11/14 08:59:49;;;;;;;376.73;65.00;;;9.20;99.90;;;;;;6214436;23;20800;-77
2021/11/14 09:02:22;;;;;;;254.00;66.03;;;9.20;99.90;;;;;;6212537;23;20450;-76
2021/11/14 09:04:51;;;;;;;152.20;61.73;;;9.20;99.90;;;;;;6217452;23;20757;-77
2021/11/14 09:07:19;;;;;;;207.10;59.27;;;9.20;99.90;;;;;;6257104;23;20370;-77
2021/11/14 09:09:47;;;;;;;212.37;56.63;;;9.20;99.90;;;;;;6219733;23;20449;-76
2021/11/14 09:12:15;;;;;;;189.87;56.13;;;9.20;99.90;;;;;;6256272;22;20432;-75
2021/11/14 09:14:44;;;;;;;208.97;59.63;;;9.20;99.90;;;;;;6245991;23;20409;-76
2021/11/14 09:17:12;;;;;;;157.03;53.43;;;9.20;99.90;;;;;;6219266;23;20429;-77
2021/11/14 09:19:43;;;;;;;293.00;61.93;;;9.20;99.90;;;;;;6219328;23;20448;-76
2021/11/14 09:22:11;;;;;;;197.10;54.13;;;9.20;99.90;;;;;;6256334;22;20399;-77
2021/11/14 09:24:39;;;;;;;272.70;58.73;;;9.20;99.90;;;;;;6256004;23;20916;-76
2021/11/14 09:27:08;;;;;;;211.10;49.50;;;9.20;99.90;;;;;;6219186;23;20500;-76
2021/11/14 09:29:37;;;;;;;255.53;65.50;;;9.20;99.90;;;;;;6246017;23;20444;-76
2021/11/14 09:32:06;;;;;;;199.60;55.73;;;9.20;99.90;;;;;;6219165;22;20467;-76
2021/11/14 09:34:35;;;;;;;218.73;60.40;;;9.20;99.90;;;;;;6219159;23;20485;-76
2021/11/14 09:37:05;;;;;;;190.90;56.60;;;9.20;99.90;;;;;;6219122;23;20491;-77
2021/11/14 09:39:33;;;;;;;182.03;57.20;;;9.20;99.90;;;;;;6219094;23;20418;-77
2021/11/14 09:42:02;;;;;;;253.80;63.30;;;9.20;99.90;;;;;;6244341;22;20406;-76
2021/11/14 09:44:30;;;;;;;194.67;57.90;;;9.30;99.90;;;;;;6218992;23;20476;-77
2021/11/14 09:47:03;;;;;;;184.43;70.50;;;9.30;99.90;;;;;;6219081;23;20441;-77
2021/11/14 09:49:33;;;;;;;370.93;68.87;;;9.30;99.90;;;;;;6256244;23;20385;-76
2021/11/14 09:52:05;;;;;;;275.30;71.67;;;9.30;99.90;;;;;;6219264;22;20496;-76
2021/11/14 09:54:34;;;;;;;211.83;53.23;;;9.30;99.90;;;;;;6246363;23;20390;-76
2021/11/14 09:57:03;;;;;;;213.00;66.87;;;9.30;99.90;;;;;;6219064;23;20413;-77
2021/11/14 09:59:31;;;;;;;264.83;65.23;;;9.30;99.90;;;;;;6219190;23;20748;-77
2021/11/14 10:02:03;;;;;;;267.47;64.87;;;9.30;99.90;;;;;;6219859;22;20733;-76
2021/11/14 10:04:32;;;;;;;192.47;55.23;;;9.30;99.90;;;;;;6220898;23;20437;-76
2021/11/14 10:07:03;;;;;;;237.03;59.60;;;9.30;99.90;;;;;;6259264;23;20448;-77
2021/11/14 10:09:35;;;;;;;222.00;54.87;;;9.30;99.90;;;;;;6257976;23;20741;-76
2021/11/14 10:12:16;;;;;;;259.00;69.73;;;9.30;99.90;;;;;;6220938;22;20405;-77
2021/11/14 10:14:46;;;;;;;203.33;51.03;;;9.30;99.90;;;;;;6258329;23;20410;-76
2021/11/14 10:17:27;;;;;;;211.47;60.07;;;9.40;99.90;;;;;;6246256;23;20410;-76
2021/11/14 10:20:12;;;;;;;282.87;59.43;;;9.40;99.90;;;;;;6220735;23;20883;-75
2021/11/14 10:22:44;;;;;;;291.67;63.07;;;9.40;99.90;;;;;;6257811;22;20449;-75
2021/11/14 10:25:17;;;;;;;274.60;64.43;;;9.40;99.90;;;;;;6221557;23;21007;-76
2021/11/14 10:27:49;;;;;;;359.47;67.93;;;9.40;99.90;;;;;;6257912;23;20414;-75
2021/11/14 10:30:20;;;;;;;227.90;57.33;;;9.40;99.90;;;;;;6220670;23;20504;-76
2021/11/14 10:32:48;;;;;;;250.93;67.63;;;9.50;99.90;;;;;;6220822;23;20475;-76
2021/11/14 10:35:16;;;;;;;210.87;48.23;;;9.50;99.90;;;;;;6258066;23;20400;-76
2021/11/14 10:37:45;;;;;;;369.40;71.43;;;9.50;99.90;;;;;;6220832;23;20449;-76
2021/11/14 10:40:18;;;;;;;287.03;57.17;;;9.50;99.90;;;;;;6220357;23;20453;-76
2021/11/14 10:42:50;;;;;;;295.87;64.33;;;9.60;99.90;;;;;;6220596;23;20480;-77
2021/11/14 10:45:20;;;;;;;301.53;55.23;;;9.60;99.90;;;;;;6220488;23;21015;-76
2021/11/14 10:47:55;;;;;;;270.20;57.03;;;9.60;99.90;;;;;;6220360;23;20460;-77
2021/11/14 10:50:28;;;;;;;350.43;65.73;;;9.60;99.90;;;;;;6220204;23;20441;-76
2021/11/14 10:52:58;;;;;;;297.93;57.37;;;9.70;99.90;;;;;;6220901;23;20527;-77
2021/11/14 10:55:31;;;;;;;149.73;46.40;;;9.70;99.90;;;;;;6220576;23;20501;-77
2021/11/14 10:58:02;;;;;;;326.53;57.83;;;9.70;99.90;;;;;;6247640;23;20480;-77
2021/11/14 11:00:33;;;;;;;232.63;51.37;;;9.70;99.90;;;;;;6220476;23;20405;-76
2021/11/14 11:03:02;;;;;;;247.50;57.53;;;9.80;99.90;;;;;;6245338;23;20521;-75
2021/11/14 11:05:31;;;;;;;244.07;61.37;;;9.80;99.90;;;;;;6215220;23;20450;-76
2021/11/14 11:08:01;;;;;;;319.03;54.87;;;9.80;99.90;;;;;;6215933;23;20743;-77
2021/11/14 11:10:34;;;;;;;291.47;59.90;;;9.80;99.90;;;;;;6215285;23;20501;-76
2021/11/14 11:13:06;;;;;;;326.23;60.23;;;9.80;99.90;;;;;;6215105;23;20473;-76
2021/11/14 11:15:40;;;;;;;177.30;53.60;;;9.80;99.90;;;;;;6215444;23;20438;-76
2021/11/14 11:18:10;;;;;;;216.77;52.40;;;9.80;99.90;;;;;;6215323;23;20414;-77
2021/11/14 11:20:39;;;;;;;288.57;60.20;;;9.80;99.90;;;;;;6215380;23;20851;-77
2021/11/14 11:23:13;;;;;;;300.73;63.97;;;9.80;99.90;;;;;;6215984;23;20944;-76
2021/11/14 11:25:46;;;;;;;253.57;55.77;;;9.80;99.90;;;;;;6214861;23;20469;-76
2021/11/14 11:28:19;;;;;;;302.97;59.73;;;9.80;99.90;;;;;;6215159;23;20482;-76
2021/11/14 11:30:50;;;;;;;276.03;58.67;;;9.80;99.90;;;;;;6215829;23;20442;-77
2021/11/14 11:33:20;;;;;;;306.50;58.67;;;9.90;99.90;;;;;;6215109;23;20442;-77
2021/11/14 11:35:50;;;;;;;324.63;59.77;;;9.90;99.90;;;;;;6215082;23;20403;-77
2021/11/14 11:38:25;;;;;;;200.57;49.30;;;9.90;99.90;;;;;;6215024;23;20485;-76
2021/11/14 11:41:02;;;;;;;254.73;58.67;;;9.90;99.90;;;;;;6215012;23;20419;-77
2021/11/14 11:43:30;;;;;;;383.63;64.97;;;9.90;99.90;;;;;;6215139;23;20457;-77
2021/11/14 11:46:02;;;;;;;206.67;52.87;;;9.90;99.90;;;;;;6214845;23;20421;-76
2021/11/14 11:48:37;;;;;;;288.40;60.33;;;10.00;99.90;;;;;;6214649;23;20418;-76
2021/11/14 11:51:07;;;;;;;163.33;41.30;;;10.00;99.90;;;;;;6215069;23;20505;-77
2021/11/14 11:53:36;;;;;;;276.77;53.00;;;10.00;99.90;;;;;;6226401;23;20502;-76
2021/11/14 11:56:09;;;;;;;390.77;60.57;;;10.00;99.90;;;;;;6214756;23;20406;-76
2021/11/14 11:58:43;;;;;;;269.43;57.60;;;10.00;99.90;;;;;;6216144;23;20449;-78
2021/11/14 12:01:24;;;;;;;177.63;46.30;;;10.00;99.90;;;;;;6228141;23;20380;-78
2021/11/14 12:03:54;;;;;;;273.27;55.03;;;10.00;99.90;;;;;;6215800;23;20438;-77
2021/11/14 12:06:24;;;;;;;314.40;56.07;;;10.00;99.90;;;;;;6214772;23;20427;-76
2021/11/14 12:08:57;;;;;;;178.37;47.10;;;10.00;99.90;;;;;;6214936;23;20417;-77
2021/11/14 12:11:34;;;;;;;386.17;66.33;;;10.00;99.90;;;;;;6215092;23;20457;-77
2021/11/14 12:14:15;;;;;;;285.57;61.60;;;10.00;99.90;;;;;;6226137;23;20418;-76
2021/11/14 12:16:55;;;;;;;250.77;51.23;;;10.00;99.90;;;;;;6214776;23;20457;-77
2021/11/14 12:19:24;;;;;;;159.00;40.83;;;10.10;99.90;;;;;;6214542;23;20509;-77
2021/11/14 12:21:59;;;;;;;280.23;50.73;;;10.00;99.90;;;;;;6226853;23;20458;-77
2021/11/14 12:24:28;;;;;;;37.72;30.20;;;10.10;99.90;;;;;;6213886;23;20442;-77
2021/11/14 12:26:58;;;;;;;315.23;61.10;;;10.10;99.90;;;;;;6215184;23;20255;-78
2021/11/14 12:29:32;;;;;;;276.13;69.63;;;10.10;99.90;;;;;;6215406;23;20509;-78
2021/11/14 12:32:02;;;;;;;283.37;69.20;;;10.10;99.90;;;;;;6227414;23;20382;-78
2021/11/14 12:34:33;;;;;;;341.97;54.80;;;10.10;99.90;;;;;;6215330;23;20446;-78
2021/11/14 12:37:07;;;;;;;355.63;61.97;;;10.10;99.90;;;;;;6226904;23;20402;-78
2021/11/14 12:39:37;;;;;;;313.97;53.00;;;10.10;99.90;;;;;;6215633;23;20826;-79